7NA2 weather

Undlin Airstrip
Lansford, North Dakota, United States

Public forecast

Using degrees Fahrenheit for public forecast. Weather courtesy of forecast.io.

METAR (pilot weather report)

Closest report is Minot Air Force Base, 16.3 nm (30.3 km) S. Retrieved 2019/07/15 18:56 UTC (20 minutes ago):

KMIB 151856Z AUTO 31016G21KT 10SM M 27/18 A2982 RMK AO2 SLP095 T02740175 $

TAF (pilot weather forecast)

Closest forecast is Minot Air Force Base, 16.3 nm (30.3 km) S. Retrieved 2019/07/15 17:18 UTC (2 hours ago):

TAF KMIB 151714Z 1517/1623 30012G18KT 9999 SKC QNH2980INS BECMG 1602/1603 VRB06KT 9999 SKC QNH2983INS BECMG 1619/1620 06006KT 8000 -SHRA BKN100 QNH2985INS TX31/1521Z TN17/1609Z